La Suprema — IBIL — position and weather

sailwx.info

Track history (hours):
 
Tides and Currents Weather Stations Pressure Air Temp Water Temp Dewpoint Dewpoint Depression Visibility Wind Speed Wind Dir Waves Ship Positions

La Suprema

Last reported at 2017-Mar-26 01:34 UTC. Time now 2017-Mar-26 01:39 UTC.
Position N 38°38' E 013°04'.

Length 211 m; draft 7.5 m.

Type: Passenger vessel. MMSI: 247083700.

Date/timePositionNaut miles runAvg speedWind from/ knotsBaromVisibWave heightAir tempDewpointWater temp
2017-Mar-26 01:34N 38°38' E 013°04'2525.2
2017-Mar-26 00:34N 38°17' E 013°21'9 9.4
2017-Mar-25 23:33N 38°08' E 013°22'0 0.0
2017-Mar-25 22:33N 38°08' E 013°22'0 0.0
2017-Mar-25 21:33N 38°08' E 013°22'0 0.0
2017-Mar-25 20:33N 38°08' E 013°22'0 0.0
2017-Mar-25 19:33N 38°08' E 013°22'0 0.0
2017-Mar-25 18:34N 38°08' E 013°22'3 3.4
2017-Mar-25 17:33N 38°11' E 013°24'2121.5
2017-Mar-25 16:34N 38°30' E 013°11'27522.5
2017-Mar-25 04:18N 42°23' E 009°58'1723.3
2017-Mar-25 03:33N 42°38' E 009°46'2323.2
2017-Mar-25 02:34N 42°60' E 009°36'2423.6
2017-Mar-25 01:34N 43°22' E 009°27'2323.0
2017-Mar-25 00:33N 43°44' E 009°15'2323.2
2017-Mar-24 23:34N 44°05' E 009°04'2020.2
2017-Mar-24 22:33N 44°24' E 008°55'0 0.1
2017-Mar-24 21:33N 44°25' E 008°55'0 0.0
2017-Mar-24 20:33N 44°25' E 008°55'0 0.0
2017-Mar-24 19:33N 44°25' E 008°55'0 0.0
2017-Mar-24 18:33N 44°25' E 008°55'0 0.4
2017-Mar-24 17:33N 44°24' E 008°55'1717.1
2017-Mar-24 16:34N 44°09' E 009°05'2221.9
2017-Mar-24 15:34N 43°48' E 009°16'2222.4
2017-Mar-24 14:34N 43°27' E 009°27'2222.2
2017-Mar-24 13:34N 43°06' E 009°37'30923.6
2017-Mar-24 00:28N 38°40' E 013°03'2224.6
2017-Mar-23 23:34N 38°21' E 013°18'33815.8
2017-Mar-23 02:09N 43°12' E 009°32'1423.0
2017-Mar-23 01:33N 43°25' E 009°26'2322.6
2017-Mar-23 00:33N 43°46' E 009°15'2323.0
2017-Mar-22 23:34N 44°08' E 009°04'1818.0
2017-Mar-22 22:33N 44°25' E 008°55'0 0.0
2017-Mar-22 21:33N 44°25' E 008°55'0 0.0
2017-Mar-22 20:33N 44°25' E 008°55'0 0.0
2017-Mar-22 19:33N 44°25' E 008°55'0 0.0
2017-Mar-22 18:33N 44°25' E 008°55'4 3.9
2017-Mar-22 17:34N 44°22' E 008°58'2323.1
2017-Mar-22 16:33N 43°60' E 009°10'2424.3
2017-Mar-22 15:33N 43°37' E 009°22'35123.4
2017-Mar-22 00:33N 38°31' E 013°10'2323.5
2017-Mar-21 23:34N 38°12' E 013°26'5 4.8
2017-Mar-21 22:34N 38°08' E 013°22'0 0.0
2017-Mar-21 21:33N 38°08' E 013°22'0 0.0
2017-Mar-21 20:34N 38°08' E 013°22'0 0.0
2017-Mar-21 19:34N 38°08' E 013°22'0 0.0
2017-Mar-21 18:33N 38°08' E 013°22'5 4.5
2017-Mar-21 17:33N 38°12' E 013°24'2020.5
2017-Mar-21 16:33N 38°29' E 013°11'31521.9
2017-Mar-21 02:08N 42°60' E 009°36'1423.5
2017-Mar-21 01:33N 43°13' E 009°31'2323.5
2017-Mar-21 00:34N 43°35' E 009°20'2423.7
2017-Mar-20 23:34N 43°57' E 009°09'2423.8
2017-Mar-20 22:33N 44°20' E 008°58'5 5.1
2017-Mar-20 21:31N 44°24' E 008°55'0 0.0
2017-Mar-20 20:24N 44°24' E 008°55'0 0.0
2017-Mar-20 19:33N 44°24' E 008°55'0 0.0
2017-Mar-20 18:23N 44°24' E 008°55'0 0.0
2017-Mar-20 17:32N 44°24' E 008°55'0 0.0
2017-Mar-20 16:29N 44°24' E 008°55'0 0.0
2017-Mar-20 15:31N 44°24' E 008°55'0 0.0
2017-Mar-20 14:28N 44°24' E 008°55'0 0.0
2017-Mar-20 13:24N 44°24' E 008°55'0 0.0
2017-Mar-20 12:30N 44°24' E 008°55'0 0.0
2017-Mar-20 11:23N 44°24' E 008°55'0 0.0
2017-Mar-20 10:29N 44°24' E 008°55'0 0.0
2017-Mar-20 09:29N 44°24' E 008°55'0 0.0
2017-Mar-20 08:19N 44°24' E 008°55'0 0.0
2017-Mar-20 07:31N 44°24' E 008°55'0 0.0
2017-Mar-20 06:33N 44°24' E 008°55'0 0.0
2017-Mar-20 05:33N 44°24' E 008°55'0 0.0
2017-Mar-20 04:23N 44°24' E 008°55'0 0.0
2017-Mar-20 03:32N 44°24' E 008°55'0 0.0
2017-Mar-20 02:25N 44°24' E 008°55'0 0.0
2017-Mar-20 01:31N 44°24' E 008°55'0 0.0
2017-Mar-20 00:31N 44°24' E 008°55'0 0.0
2017-Mar-19 23:33N 44°24' E 008°55'0 0.0
2017-Mar-19 22:30N 44°24' E 008°55'0 0.0
2017-Mar-19 21:20N 44°24' E 008°55'0 0.0
2017-Mar-19 20:32N 44°24' E 008°55'0 0.4
2017-Mar-19 19:33N 44°24' E 008°55'1717.4
2017-Mar-19 18:33N 44°08' E 009°05'2221.8
2017-Mar-19 17:33N 43°48' E 009°16'2222.2
2017-Mar-19 16:33N 43°27' E 009°27'2221.6
2017-Mar-19 15:33N 43°07' E 009°37'31021.5
2017-Mar-19 01:08N 38°39' E 013°03'1221.4
2017-Mar-19 00:33N 38°29' E 013°13'2221.8
2017-Mar-18 23:34N 38°10' E 013°26'4 4.0
2017-Mar-18 22:33N 38°08' E 013°22'0 0.0
2017-Mar-18 21:33N 38°08' E 013°22'0 0.0
2017-Mar-18 20:33N 38°08' E 013°22'0 0.0
2017-Mar-18 19:33N 38°08' E 013°22'0 0.2
2017-Mar-18 18:33N 38°08' E 013°22'1312.6
2017-Mar-18 17:33N 38°20' E 013°19'35121.9
2017-Mar-18 01:33N 43°23' E 009°27'2121.1
2017-Mar-18 00:33N 43°43' E 009°17'2121.5
2017-Mar-17 23:33N 44°03' E 009°06'2121.0
2017-Mar-17 22:33N 44°23' E 008°57'2 1.9
2017-Mar-17 21:33N 44°25' E 008°55'0 0.0
2017-Mar-17 20:33N 44°25' E 008°55'0 0.0
2017-Mar-17 19:33N 44°25' E 008°55'0 0.0
2017-Mar-17 18:33N 44°25' E 008°55'6 5.7
2017-Mar-17 17:34N 44°20' E 008°59'2322.9
2017-Mar-17 16:34N 43°58' E 009°11'2322.7
2017-Mar-17 15:33N 43°37' E 009°22'2322.3
2017-Mar-17 14:32N 43°16' E 009°33'32022.2
2017-Mar-17 00:07N 38°38' E 013°03'1222.2
2017-Mar-16 23:33N 38°28' E 013°12'2222.0
2017-Mar-16 22:34N 38°09' E 013°26'4 3.5
2017-Mar-16 21:34N 38°08' E 013°22'0 0.0
2017-Mar-16 20:33N 38°08' E 013°22'0 0.0
2017-Mar-16 19:34N 38°08' E 013°22'0 0.0
2017-Mar-16 18:33N 38°08' E 013°22'3 3.0
2017-Mar-16 17:33N 38°10' E 013°24'2323.0
2017-Mar-16 16:33N 38°30' E 013°10'29123.6
2017-Mar-16 04:14N 42°37' E 009°47'1723.3
2017-Mar-16 03:30N 42°52' E 009°38'2223.7
2017-Mar-16 02:34N 43°14' E 009°30'2423.9
2017-Mar-16 01:34N 43°36' E 009°19'  
Track history (hours):
 
Tides and Currents Weather Stations Pressure Air Temp Water Temp Dewpoint Dewpoint Depression Visibility Wind Speed Wind Dir Waves Ship Positions

La Suprema

Last reported at 2017-Mar-26 01:34 UTC. Time now 2017-Mar-26 01:39 UTC.
Position N 38°38' E 013°04'.

Length 211 m; draft 7.5 m.

Type: Passenger vessel. MMSI: 247083700.

Date/timePositionNaut miles runAvg speedWind from/ knotsBaromVisibWave heightAir tempDewpointWater temp
2017-Mar-26 01:34N 38°38' E 013°04'2525.2
2017-Mar-26 00:34N 38°17' E 013°21'9 9.4
2017-Mar-25 23:33N 38°08' E 013°22'0 0.0
2017-Mar-25 22:33N 38°08' E 013°22'0 0.0
2017-Mar-25 21:33N 38°08' E 013°22'0 0.0
2017-Mar-25 20:33N 38°08' E 013°22'0 0.0
2017-Mar-25 19:33N 38°08' E 013°22'0 0.0
2017-Mar-25 18:34N 38°08' E 013°22'3 3.4
2017-Mar-25 17:33N 38°11' E 013°24'2121.5
2017-Mar-25 16:34N 38°30' E 013°11'27522.5
2017-Mar-25 04:18N 42°23' E 009°58'1723.3
2017-Mar-25 03:33N 42°38' E 009°46'2323.2
2017-Mar-25 02:34N 42°60' E 009°36'2423.6
2017-Mar-25 01:34N 43°22' E 009°27'2323.0
2017-Mar-25 00:33N 43°44' E 009°15'2323.2
2017-Mar-24 23:34N 44°05' E 009°04'2020.2
2017-Mar-24 22:33N 44°24' E 008°55'0 0.1
2017-Mar-24 21:33N 44°25' E 008°55'0 0.0
2017-Mar-24 20:33N 44°25' E 008°55'0 0.0
2017-Mar-24 19:33N 44°25' E 008°55'0 0.0
2017-Mar-24 18:33N 44°25' E 008°55'0 0.4
2017-Mar-24 17:33N 44°24' E 008°55'1717.1
2017-Mar-24 16:34N 44°09' E 009°05'2221.9
2017-Mar-24 15:34N 43°48' E 009°16'2222.4
2017-Mar-24 14:34N 43°27' E 009°27'2222.2
2017-Mar-24 13:34N 43°06' E 009°37'30923.6
2017-Mar-24 00:28N 38°40' E 013°03'2224.6
2017-Mar-23 23:34N 38°21' E 013°18'33815.8
2017-Mar-23 02:09N 43°12' E 009°32'1423.0
2017-Mar-23 01:33N 43°25' E 009°26'2322.6
2017-Mar-23 00:33N 43°46' E 009°15'2323.0
2017-Mar-22 23:34N 44°08' E 009°04'1818.0
2017-Mar-22 22:33N 44°25' E 008°55'0 0.0
2017-Mar-22 21:33N 44°25' E 008°55'0 0.0
2017-Mar-22 20:33N 44°25' E 008°55'0 0.0
2017-Mar-22 19:33N 44°25' E 008°55'0 0.0
2017-Mar-22 18:33N 44°25' E 008°55'4 3.9
2017-Mar-22 17:34N 44°22' E 008°58'2323.1
2017-Mar-22 16:33N 43°60' E 009°10'2424.3
2017-Mar-22 15:33N 43°37' E 009°22'35123.4
2017-Mar-22 00:33N 38°31' E 013°10'2323.5
2017-Mar-21 23:34N 38°12' E 013°26'5 4.8
2017-Mar-21 22:34N 38°08' E 013°22'0 0.0
2017-Mar-21 21:33N 38°08' E 013°22'0 0.0
2017-Mar-21 20:34N 38°08' E 013°22'0 0.0
2017-Mar-21 19:34N 38°08' E 013°22'0 0.0
2017-Mar-21 18:33N 38°08' E 013°22'5 4.5
2017-Mar-21 17:33N 38°12' E 013°24'2020.5
2017-Mar-21 16:33N 38°29' E 013°11'31521.9
2017-Mar-21 02:08N 42°60' E 009°36'1423.5
2017-Mar-21 01:33N 43°13' E 009°31'2323.5
2017-Mar-21 00:34N 43°35' E 009°20'2423.7
2017-Mar-20 23:34N 43°57' E 009°09'2423.8
2017-Mar-20 22:33N 44°20' E 008°58'5 5.1
2017-Mar-20 21:31N 44°24' E 008°55'0 0.0
2017-Mar-20 20:24N 44°24' E 008°55'0 0.0
2017-Mar-20 19:33N 44°24' E 008°55'0 0.0
2017-Mar-20 18:23N 44°24' E 008°55'0 0.0
2017-Mar-20 17:32N 44°24' E 008°55'0 0.0
2017-Mar-20 16:29N 44°24' E 008°55'0 0.0
2017-Mar-20 15:31N 44°24' E 008°55'0 0.0
2017-Mar-20 14:28N 44°24' E 008°55'0 0.0
2017-Mar-20 13:24N 44°24' E 008°55'0 0.0
2017-Mar-20 12:30N 44°24' E 008°55'0 0.0
2017-Mar-20 11:23N 44°24' E 008°55'0 0.0
2017-Mar-20 10:29N 44°24' E 008°55'0 0.0
2017-Mar-20 09:29N 44°24' E 008°55'0 0.0
2017-Mar-20 08:19N 44°24' E 008°55'0 0.0
2017-Mar-20 07:31N 44°24' E 008°55'0 0.0
2017-Mar-20 06:33N 44°24' E 008°55'0 0.0
2017-Mar-20 05:33N 44°24' E 008°55'0 0.0
2017-Mar-20 04:23N 44°24' E 008°55'0 0.0
2017-Mar-20 03:32N 44°24' E 008°55'0 0.0
2017-Mar-20 02:25N 44°24' E 008°55'0 0.0
2017-Mar-20 01:31N 44°24' E 008°55'0 0.0
2017-Mar-20 00:31N 44°24' E 008°55'0 0.0
2017-Mar-19 23:33N 44°24' E 008°55'0 0.0
2017-Mar-19 22:30N 44°24' E 008°55'0 0.0
2017-Mar-19 21:20N 44°24' E 008°55'0 0.0
2017-Mar-19 20:32N 44°24' E 008°55'0 0.4
2017-Mar-19 19:33N 44°24' E 008°55'1717.4
2017-Mar-19 18:33N 44°08' E 009°05'2221.8
2017-Mar-19 17:33N 43°48' E 009°16'2222.2
2017-Mar-19 16:33N 43°27' E 009°27'2221.6
2017-Mar-19 15:33N 43°07' E 009°37'31021.5
2017-Mar-19 01:08N 38°39' E 013°03'1221.4
2017-Mar-19 00:33N 38°29' E 013°13'2221.8
2017-Mar-18 23:34N 38°10' E 013°26'4 4.0
2017-Mar-18 22:33N 38°08' E 013°22'0 0.0
2017-Mar-18 21:33N 38°08' E 013°22'0 0.0
2017-Mar-18 20:33N 38°08' E 013°22'0 0.0
2017-Mar-18 19:33N 38°08' E 013°22'0 0.2
2017-Mar-18 18:33N 38°08' E 013°22'1312.6
2017-Mar-18 17:33N 38°20' E 013°19'35121.9
2017-Mar-18 01:33N 43°23' E 009°27'2121.1
2017-Mar-18 00:33N 43°43' E 009°17'2121.5
2017-Mar-17 23:33N 44°03' E 009°06'2121.0
2017-Mar-17 22:33N 44°23' E 008°57'2 1.9
2017-Mar-17 21:33N 44°25' E 008°55'0 0.0
2017-Mar-17 20:33N 44°25' E 008°55'0 0.0
2017-Mar-17 19:33N 44°25' E 008°55'0 0.0
2017-Mar-17 18:33N 44°25' E 008°55'6 5.7
2017-Mar-17 17:34N 44°20' E 008°59'2322.9
2017-Mar-17 16:34N 43°58' E 009°11'2322.7
2017-Mar-17 15:33N 43°37' E 009°22'2322.3
2017-Mar-17 14:32N 43°16' E 009°33'32022.2
2017-Mar-17 00:07N 38°38' E 013°03'1222.2
2017-Mar-16 23:33N 38°28' E 013°12'2222.0
2017-Mar-16 22:34N 38°09' E 013°26'4 3.5
2017-Mar-16 21:34N 38°08' E 013°22'0 0.0
2017-Mar-16 20:33N 38°08' E 013°22'0 0.0
2017-Mar-16 19:34N 38°08' E 013°22'0 0.0
2017-Mar-16 18:33N 38°08' E 013°22'3 3.0
2017-Mar-16 17:33N 38°10' E 013°24'2323.0
2017-Mar-16 16:33N 38°30' E 013°10'29123.6
2017-Mar-16 04:14N 42°37' E 009°47'1723.3
2017-Mar-16 03:30N 42°52' E 009°38'2223.7
2017-Mar-16 02:34N 43°14' E 009°30'2423.9
2017-Mar-16 01:34N 43°36' E 009°19'  

Dump ship's entire track history